Time;durP1;ratioP1;P1;durP2;ratioP2;P2;SDS_P1;SDS_P2;PMS_P1;PMS_P2;Temp;Humidity;BMP_temperature;BMP_pressure;BME280_temperature;BME280_humidity;BME280_pressure;Samples;Min_cycle;Max_cycle;Signal;HPM_P1;HPM_P2
2022/07/10 00:01:08;;;;;;;4.20;2.40;;;22.70;48.90;23.70;101814.00;;;;5065911;28;20177;-45
2022/07/10 00:03:34;;;;;;;3.03;1.90;;;22.70;49.00;23.70;101821.00;;;;5068966;28;20169;-42
2022/07/10 00:06:00;;;;;;;3.00;1.90;;;22.70;49.10;23.70;101820.00;;;;5066444;28;20224;-42
2022/07/10 00:08:26;;;;;;;3.50;1.93;;;22.70;49.10;23.70;101817.00;;;;5066179;28;20184;-42
2022/07/10 00:10:52;;;;;;;4.00;2.10;;;22.60;49.00;23.70;101819.00;;;;5066013;28;20174;-42
2022/07/10 00:13:18;;;;;;;2.47;1.93;;;22.60;49.10;23.70;101808.00;;;;5065981;28;20169;-41
2022/07/10 00:15:43;;;;;;;3.37;2.00;;;22.60;49.10;23.70;101812.00;;;;5066216;28;20673;-42
2022/07/10 00:18:09;;;;;;;3.40;2.17;;;22.60;49.20;23.70;101813.00;;;;5065758;28;20208;-41
2022/07/10 00:20:36;;;;;;;4.63;2.03;;;22.60;49.20;23.60;101818.00;;;;5065764;28;20181;-42
2022/07/10 00:23:01;;;;;;;2.10;1.90;;;22.50;49.10;23.60;101808.00;;;;5065869;28;20208;-41
2022/07/10 00:25:27;;;;;;;3.13;2.00;;;22.50;49.10;23.60;101812.00;;;;5066010;28;20197;-42
2022/07/10 00:27:53;;;;;;;2.60;1.90;;;22.50;49.20;23.60;101819.00;;;;5067825;28;20654;-42
2022/07/10 00:30:19;;;;;;;2.57;2.03;;;22.50;49.30;23.60;101814.00;;;;5066154;28;20199;-41
2022/07/10 00:32:44;;;;;;;4.17;2.00;;;22.50;49.10;23.50;101810.00;;;;5066030;28;20662;-42
2022/07/10 00:35:10;;;;;;;3.53;2.00;;;22.50;49.10;23.50;101817.00;;;;5065700;28;20165;-42
2022/07/10 00:37:36;;;;;;;3.23;2.00;;;22.50;49.20;23.50;101825.00;;;;5065375;28;20248;-42
2022/07/10 00:40:04;;;;;;;3.47;1.93;;;22.40;49.00;23.50;101819.00;;;;5066066;28;20264;-42
2022/07/10 00:42:30;;;;;;;3.20;2.00;;;22.40;49.00;23.50;101818.00;;;;5065970;28;20185;-42
2022/07/10 00:44:55;;;;;;;2.83;1.87;;;22.40;49.00;23.50;101828.00;;;;5065445;28;20549;-43
2022/07/10 00:47:21;;;;;;;3.33;2.13;;;22.40;49.10;23.50;101810.00;;;;5065219;28;20261;-42
2022/07/10 00:49:47;;;;;;;3.80;2.07;;;22.40;49.00;23.40;101812.00;;;;5065584;28;20173;-42
2022/07/10 00:52:17;;;;;;;3.17;1.93;;;22.40;49.10;23.40;101806.00;;;;5065540;28;20169;-43
2022/07/10 00:54:50;;;;;;;3.50;2.00;;;22.40;49.20;23.40;101818.00;;;;5064259;28;20718;-43
2022/07/10 00:57:16;;;;;;;4.37;2.00;;;22.30;49.20;23.20;101819.00;;;;5064464;28;20715;-43
2022/07/10 00:59:42;;;;;;;3.17;1.80;;;22.30;49.00;23.40;101811.00;;;;5064366;28;20166;-42
2022/07/10 01:02:07;;;;;;;2.23;1.60;;;22.30;49.00;23.30;101802.00;;;;5064723;28;20768;-43
2022/07/10 01:04:33;;;;;;;4.07;2.20;;;22.30;48.90;23.30;101802.00;;;;5064091;28;20201;-43
2022/07/10 01:06:59;;;;;;;3.30;1.90;;;22.20;48.90;23.30;101802.00;;;;5065273;28;20667;-43
2022/07/10 01:09:25;;;;;;;4.83;1.90;;;22.20;49.00;23.30;101804.00;;;;5065080;28;20170;-43
2022/07/10 01:11:51;;;;;;;3.73;2.10;;;22.20;49.00;23.30;101793.00;;;;5065415;28;20170;-43
2022/07/10 01:14:17;;;;;;;2.90;1.60;;;22.20;49.00;23.30;101799.00;;;;5069035;28;20193;-43
2022/07/10 01:16:42;;;;;;;2.80;1.80;;;22.20;49.10;23.30;101796.00;;;;5068932;28;20216;-43
2022/07/10 01:19:08;;;;;;;3.37;2.00;;;22.20;49.10;23.20;101793.00;;;;5068641;28;20158;-42
2022/07/10 01:21:36;;;;;;;2.63;1.80;;;22.20;49.20;23.20;101792.00;;;;5068737;28;20162;-42
2022/07/10 01:24:07;;;;;;;2.97;1.70;;;22.20;49.30;23.20;101780.00;;;;5068253;28;20534;-41
2022/07/10 01:26:33;;;;;;;3.43;2.03;;;22.20;49.30;23.20;101784.00;;;;5069294;28;20582;-42
2022/07/10 01:29:00;;;;;;;2.87;1.80;;;22.10;49.30;23.20;101768.00;;;;5068892;28;20169;-43
2022/07/10 01:31:26;;;;;;;1.70;1.60;;;22.10;49.40;23.10;101778.00;;;;5068215;28;20176;-43
2022/07/10 01:33:52;;;;;;;2.83;1.90;;;22.10;49.40;23.10;101770.00;;;;5070262;28;20169;-42
2022/07/10 01:36:19;;;;;;;2.40;1.90;;;22.10;49.50;23.10;101756.00;;;;5068463;28;20189;-43
2022/07/10 01:38:44;;;;;;;3.13;1.90;;;22.10;49.60;23.10;101777.00;;;;5067299;28;20203;-43
2022/07/10 01:41:10;;;;;;;1.60;1.50;;;22.10;49.70;23.10;101767.00;;;;5068717;28;20204;-43
2022/07/10 01:43:36;;;;;;;2.10;1.80;;;22.00;49.60;23.00;101756.00;;;;5068825;28;20212;-43
2022/07/10 01:46:03;;;;;;;2.73;1.97;;;22.00;49.60;23.00;101758.00;;;;5068697;28;20201;-42
2022/07/10 01:48:30;;;;;;;4.00;1.57;;;22.00;49.70;23.00;101758.00;;;;5068413;28;20788;-42
2022/07/10 01:50:55;;;;;;;2.83;1.83;;;22.00;49.80;23.00;101763.00;;;;5068747;28;20249;-43
2022/07/10 01:53:21;;;;;;;3.13;1.97;;;21.90;49.60;23.00;101764.00;;;;5074709;28;20654;-42
2022/07/10 01:55:47;;;;;;;3.10;2.20;;;21.90;49.60;23.00;101767.00;;;;5067173;28;20169;-43
2022/07/10 01:58:13;;;;;;;3.50;1.90;;;21.90;49.60;23.00;101763.00;;;;5068201;28;20213;-42
2022/07/10 02:00:38;;;;;;;2.70;1.97;;;21.90;49.70;22.90;101768.00;;;;5068417;28;20542;-42
2022/07/10 02:05:48;;;;;;;4.63;2.07;;;21.80;49.80;22.90;101760.00;;;;5067728;28;20247;-42
2022/07/10 02:08:14;;;;;;;3.20;1.90;;;21.80;50.00;22.90;101762.00;;;;5068562;28;20253;-42
2022/07/10 02:10:40;;;;;;;3.50;2.03;;;21.80;50.00;22.80;101756.00;;;;5069873;28;20187;-42
2022/07/10 02:13:06;;;;;;;3.77;1.90;;;21.80;50.00;22.80;101763.00;;;;5078434;28;20169;-42
2022/07/10 02:15:31;;;;;;;3.13;1.90;;;21.80;50.10;22.80;101752.00;;;;5078920;28;20189;-41
2022/07/10 02:17:57;;;;;;;2.50;1.83;;;21.80;50.00;22.80;101745.00;;;;5069829;28;20763;-43
2022/07/10 02:20:23;;;;;;;3.10;1.90;;;21.80;50.10;22.80;101751.00;;;;5068521;28;20686;-42
2022/07/10 02:22:49;;;;;;;2.83;1.73;;;21.80;50.20;22.80;101751.00;;;;5068065;28;20203;-43
2022/07/10 02:25:14;;;;;;;2.80;1.83;;;21.70;50.10;22.80;101745.00;;;;5067899;28;20201;-42
2022/07/10 02:27:40;;;;;;;3.27;1.90;;;21.70;50.10;22.70;101750.00;;;;5067097;28;20197;-42
2022/07/10 02:30:06;;;;;;;3.20;1.80;;;21.70;50.10;22.70;101729.00;;;;5067910;28;20162;-41
2022/07/10 02:32:32;;;;;;;5.00;2.00;;;21.70;50.20;22.70;101734.00;;;;5067711;28;20176;-42
2022/07/10 02:34:58;;;;;;;2.37;1.87;;;21.70;50.30;22.70;101725.00;;;;5067444;28;20169;-43
2022/07/10 02:37:25;;;;;;;2.87;2.00;;;21.70;50.20;22.70;101717.00;;;;5067426;28;20714;-43
2022/07/10 02:39:50;;;;;;;2.40;1.87;;;21.70;50.20;22.70;101738.00;;;;5067739;28;20263;-43
2022/07/10 02:42:16;;;;;;;2.77;1.90;;;21.70;50.30;22.70;101742.00;;;;5067390;28;20756;-43
2022/07/10 02:44:42;;;;;;;3.30;1.70;;;21.70;50.30;22.70;101740.00;;;;5067280;28;20185;-42
2022/07/10 02:47:07;;;;;;;3.30;2.00;;;21.70;50.30;22.60;101730.00;;;;5067123;28;20700;-41
2022/07/10 02:49:33;;;;;;;4.57;1.90;;;21.70;50.30;22.60;101730.00;;;;5066201;28;20598;-42
2022/07/10 02:51:59;;;;;;;1.90;1.67;;;21.60;50.30;22.60;101731.00;;;;5067380;28;20189;-42
2022/07/10 02:54:25;;;;;;;3.40;1.90;;;21.60;50.30;22.60;101734.00;;;;5067266;28;20245;-42
2022/07/10 02:56:50;;;;;;;4.10;1.80;;;21.60;50.50;22.60;101738.00;;;;5066914;28;20265;-42
2022/07/10 02:59:18;;;;;;;3.83;1.90;;;21.60;50.60;22.60;101750.00;;;;5066856;28;20252;-42
2022/07/10 03:01:44;;;;;;;2.37;1.70;;;21.60;50.70;22.60;101742.00;;;;5066959;28;20607;-43
2022/07/10 03:04:09;;;;;;;2.90;1.67;;;21.60;50.70;22.50;101742.00;;;;5066890;28;20200;-42
2022/07/10 03:06:35;;;;;;;2.77;1.90;;;21.60;50.70;22.50;101743.00;;;;5066762;28;20204;-42
2022/07/10 03:09:01;;;;;;;2.33;1.83;;;21.60;50.70;22.50;101745.00;;;;5066619;28;20178;-41
2022/07/10 03:11:26;;;;;;;2.87;1.83;;;21.50;50.60;22.50;101738.00;;;;5066465;28;20165;-42
2022/07/10 03:13:52;;;;;;;3.37;1.90;;;21.60;50.70;22.50;101742.00;;;;5066850;28;20700;-41
2022/07/10 03:16:18;;;;;;;2.47;1.70;;;21.50;50.60;22.50;101751.00;;;;5069300;28;20197;-43
2022/07/10 03:18:45;;;;;;;1.97;1.70;;;21.50;50.70;22.50;101755.00;;;;5079838;28;20181;-42
2022/07/10 03:21:11;;;;;;;2.30;1.67;;;21.50;50.70;22.50;101751.00;;;;5079265;28;20254;-42
2022/07/10 03:23:39;;;;;;;3.47;1.90;;;21.50;50.80;22.40;101757.00;;;;5073355;28;20211;-41
2022/07/10 03:26:05;;;;;;;2.47;1.80;;;21.50;51.00;22.40;101759.00;;;;5067123;28;20212;-42
2022/07/10 03:28:31;;;;;;;3.07;1.90;;;21.40;50.80;22.40;101762.00;;;;5066234;28;20205;-43
2022/07/10 03:30:57;;;;;;;3.03;1.80;;;21.40;50.80;22.40;101760.00;;;;5068552;28;20238;-42
2022/07/10 03:33:22;;;;;;;3.07;2.00;;;21.50;51.10;22.40;101759.00;;;;5060045;28;20479;-41
2022/07/10 03:35:48;;;;;;;3.90;1.73;;;21.40;50.90;22.40;101756.00;;;;5065747;28;20176;-42
2022/07/10 03:38:14;;;;;;;3.80;1.80;;;21.40;50.90;22.40;101764.00;;;;5065848;28;20620;-43
2022/07/10 03:40:40;;;;;;;3.40;1.90;;;21.40;50.90;22.40;101767.00;;;;5068359;28;20183;-43
2022/07/10 03:43:06;;;;;;;5.47;3.13;;;21.40;51.00;22.40;101758.00;;;;5068233;28;20221;-43
2022/07/10 03:45:31;;;;;;;4.83;3.70;;;21.40;51.00;22.30;101759.00;;;;5065925;28;20653;-43
2022/07/10 03:47:57;;;;;;;3.97;2.90;;;21.40;51.00;22.30;101754.00;;;;5065861;28;20205;-43
2022/07/10 03:50:23;;;;;;;4.30;2.20;;;21.40;51.30;22.30;101753.00;;;;5067090;28;20215;-42
2022/07/10 03:52:49;;;;;;;3.47;2.00;;;21.30;51.20;22.30;101747.00;;;;5065649;28;20181;-41
2022/07/10 03:55:14;;;;;;;3.77;2.30;;;21.30;51.20;22.30;101748.00;;;;5065582;28;20170;-42
2022/07/10 03:57:56;;;;;;;3.70;1.80;;;21.30;51.30;22.30;101750.00;;;;5065380;28;20191;-42
2022/07/10 04:00:26;;;;;;;3.63;2.00;;;21.30;51.30;22.30;101750.00;;;;5065013;28;20697;-42
2022/07/10 04:03:05;;;;;;;2.43;1.80;;;21.30;51.20;22.30;101729.00;;;;5065842;28;20160;-41
2022/07/10 04:05:31;;;;;;;3.60;2.20;;;21.30;51.30;22.20;101738.00;;;;5064935;28;20193;-41
2022/07/10 04:07:57;;;;;;;3.83;2.00;;;21.30;51.30;22.20;101740.00;;;;5065692;28;20536;-42
2022/07/10 04:10:24;;;;;;;2.87;1.83;;;21.30;51.30;22.20;101733.00;;;;5065500;28;20255;-42
2022/07/10 04:12:50;;;;;;;3.83;1.83;;;21.20;51.20;22.20;101738.00;;;;5065625;28;20195;-43
2022/07/10 04:15:16;;;;;;;2.93;1.90;;;21.20;51.20;22.20;101750.00;;;;5065757;28;20256;-42
2022/07/10 04:17:42;;;;;;;2.40;1.70;;;21.20;51.20;22.20;101751.00;;;;5065161;28;20196;-41
2022/07/10 04:20:08;;;;;;;4.00;2.17;;;21.30;51.30;22.20;101754.00;;;;5064640;28;20232;-41
2022/07/10 04:22:34;;;;;;;3.03;1.90;;;21.20;51.20;22.20;101743.00;;;;5065769;28;20222;-43
2022/07/10 04:25:00;;;;;;;3.17;2.07;;;21.20;51.20;22.20;101746.00;;;;5065509;28;20683;-41
2022/07/10 04:27:25;;;;;;;4.77;2.13;;;21.20;51.20;22.10;101738.00;;;;5065460;28;20201;-41
2022/07/10 04:29:51;;;;;;;3.67;1.97;;;21.20;51.30;22.10;101741.00;;;;5065767;28;20178;-43
2022/07/10 04:32:17;;;;;;;3.37;1.97;;;21.20;51.60;22.10;101751.00;;;;5067463;28;20184;-42
2022/07/10 04:34:43;;;;;;;3.77;2.07;;;21.20;51.60;22.10;101744.00;;;;5066956;28;20192;-42
2022/07/10 04:37:09;;;;;;;3.67;1.97;;;21.20;51.60;22.10;101745.00;;;;5068638;28;20279;-42
2022/07/10 04:39:37;;;;;;;4.77;2.13;;;21.10;51.60;22.10;101763.00;;;;5066446;28;20196;-42
2022/07/10 04:42:04;;;;;;;4.77;2.10;;;21.20;51.70;22.10;101754.00;;;;5066229;28;20276;-42
2022/07/10 04:44:30;;;;;;;4.30;2.13;;;21.20;51.70;22.10;101759.00;;;;5065719;28;20577;-42
2022/07/10 04:46:56;;;;;;;3.73;1.97;;;21.10;51.70;22.10;101765.00;;;;5066936;28;20199;-42
2022/07/10 04:49:21;;;;;;;2.93;1.90;;;21.10;51.70;22.00;101753.00;;;;5070841;28;20176;-41
2022/07/10 04:51:47;;;;;;;5.10;2.30;;;21.10;51.90;22.00;101762.00;;;;5068716;28;20201;-42
2022/07/10 04:54:13;;;;;;;7.37;2.20;;;21.10;52.00;22.00;101752.00;;;;5069721;28;20173;-44
2022/07/10 04:56:38;;;;;;;5.00;2.20;;;21.10;52.20;22.00;101764.00;;;;5069971;28;20196;-42
2022/07/10 04:59:04;;;;;;;3.87;2.13;;;21.10;52.30;22.00;101765.00;;;;5071307;28;20166;-42
2022/07/10 05:01:30;;;;;;;5.60;2.27;;;21.10;52.70;22.00;101756.00;;;;5068476;28;20181;-42
2022/07/10 05:03:56;;;;;;;4.87;2.33;;;21.10;52.20;22.00;101757.00;;;;5069375;28;20176;-43
2022/07/10 05:06:21;;;;;;;4.47;1.90;;;21.10;52.30;22.00;101756.00;;;;5069151;28;20283;-43
2022/07/10 05:08:48;;;;;;;4.57;2.10;;;21.00;52.10;22.00;101755.00;;;;5069095;28;20814;-43
2022/07/10 05:11:14;;;;;;;3.93;1.90;;;21.00;52.10;22.00;101768.00;;;;5068345;28;20781;-43
2022/07/10 05:13:39;;;;;;;3.93;2.20;;;21.10;52.30;21.90;101763.00;;;;5068985;28;20168;-43
2022/07/10 05:16:06;;;;;;;3.23;2.00;;;21.00;52.30;21.90;101764.00;;;;5068651;28;20181;-42
2022/07/10 05:18:31;;;;;;;2.97;2.00;;;21.00;52.30;21.90;101763.00;;;;5069489;28;20188;-43
2022/07/10 05:20:57;;;;;;;2.87;2.00;;;21.10;52.40;21.90;101762.00;;;;5069621;28;20646;-43
2022/07/10 05:23:23;;;;;;;4.03;2.10;;;21.00;52.40;21.90;101768.00;;;;5068719;28;20181;-43
2022/07/10 05:25:49;;;;;;;3.50;2.10;;;21.00;52.40;21.90;101767.00;;;;5068500;28;20218;-41
2022/07/10 05:28:15;;;;;;;3.23;2.30;;;21.00;52.60;21.90;101777.00;;;;5068253;28;20197;-42
2022/07/10 05:30:41;;;;;;;5.50;2.20;;;21.00;52.50;21.90;101771.00;;;;5068219;28;20205;-44
2022/07/10 05:33:07;;;;;;;2.73;1.90;;;21.00;52.40;21.80;101770.00;;;;5067273;28;20163;-43
2022/07/10 05:35:33;;;;;;;3.33;2.20;;;21.00;53.20;21.80;101777.00;;;;5069105;28;20282;-43
2022/07/10 05:37:59;;;;;;;3.33;2.20;;;21.00;52.50;21.80;101778.00;;;;5068748;28;20665;-42
2022/07/10 05:40:25;;;;;;;3.33;2.10;;;21.00;52.70;21.80;101777.00;;;;5069030;28;20218;-42
2022/07/10 05:42:50;;;;;;;3.57;2.20;;;21.00;52.90;21.80;101786.00;;;;5070641;28;20211;-41
2022/07/10 05:45:17;;;;;;;4.37;2.30;;;21.00;52.80;21.80;101783.00;;;;5075392;28;20345;-43
2022/07/10 05:47:44;;;;;;;3.00;2.30;;;21.00;53.40;21.80;101786.00;;;;5068723;28;20194;-42
2022/07/10 05:50:11;;;;;;;4.70;2.77;;;20.90;53.10;21.80;101785.00;;;;5068807;28;20175;-43
2022/07/10 05:52:37;;;;;;;3.97;2.43;;;20.90;53.20;21.80;101781.00;;;;5068693;28;20875;-43
2022/07/10 05:55:03;;;;;;;3.00;2.23;;;20.90;53.30;21.80;101777.00;;;;5069130;28;20179;-42
2022/07/10 05:57:32;;;;;;;4.33;2.37;;;20.90;53.20;21.70;101787.00;;;;5068100;28;20191;-43
2022/07/10 05:59:58;;;;;;;4.50;2.57;;;20.90;53.30;21.70;101780.00;;;;5068470;28;20191;-41
2022/07/10 06:02:24;;;;;;;3.57;2.20;;;20.90;53.50;21.70;101779.00;;;;5068835;28;20170;-43
2022/07/10 06:04:49;;;;;;;3.80;2.30;;;20.80;53.60;21.70;101774.00;;;;5068378;28;20205;-42
2022/07/10 06:07:16;;;;;;;3.40;2.37;;;20.80;53.60;21.70;101773.00;;;;5070721;28;20691;-43
2022/07/10 06:09:41;;;;;;;2.93;2.13;;;20.80;53.40;21.40;101785.00;;;;5068555;28;20235;-42
2022/07/10 06:12:08;;;;;;;3.90;2.20;;;20.80;53.40;21.60;101779.00;;;;5068250;28;20192;-42
2022/07/10 06:14:33;;;;;;;4.33;2.30;;;20.80;53.40;21.60;101765.00;;;;5068674;28;20592;-43
2022/07/10 06:16:59;;;;;;;3.80;2.20;;;20.80;53.40;21.60;101762.00;;;;5068832;28;20203;-42
2022/07/10 06:19:25;;;;;;;3.60;2.40;;;20.80;53.70;21.60;101774.00;;;;5067982;28;20197;-42
2022/07/10 06:22:30;;;;;;;4.50;2.30;;;20.70;53.70;21.60;101770.00;;;;5067711;28;20244;-41
2022/07/10 06:24:36;;;;;;;4.57;2.40;;;20.70;53.70;21.60;101770.00;;;;5067704;28;20251;-44
2022/07/10 06:27:03;;;;;;;4.23;2.23;;;20.70;53.50;21.60;101773.00;;;;5068161;28;20231;-42
2022/07/10 06:29:28;;;;;;;2.80;2.07;;;20.70;53.70;21.50;101773.00;;;;5067780;28;20598;-42
2022/07/10 06:31:54;;;;;;;4.17;2.33;;;20.70;53.70;21.50;101777.00;;;;5067893;28;20228;-42
2022/07/10 06:34:20;;;;;;;4.00;2.20;;;20.70;53.90;21.50;101768.00;;;;5066754;28;20236;-43
2022/07/10 06:36:46;;;;;;;4.80;2.23;;;20.60;54.00;21.50;101778.00;;;;5067545;28;20189;-43
2022/07/10 06:39:11;;;;;;;4.30;2.30;;;20.60;53.90;21.50;101782.00;;;;5067566;28;20170;-42
2022/07/10 06:41:38;;;;;;;5.50;2.27;;;20.60;54.00;21.50;101785.00;;;;5001939;28;22498;-42
2022/07/10 06:44:04;;;;;;;4.67;2.50;;;20.60;54.10;21.50;101779.00;;;;5106774;28;20160;-42
2022/07/10 06:46:30;;;;;;;4.20;2.57;;;20.60;54.20;21.40;101780.00;;;;5104447;28;20211;-42
2022/07/10 06:48:56;;;;;;;3.40;2.50;;;20.60;54.30;21.40;101776.00;;;;5105986;28;20188;-42
2022/07/10 06:51:22;;;;;;;5.87;2.70;;;20.60;54.20;21.40;101780.00;;;;5082507;28;20179;-42
2022/07/10 06:53:48;;;;;;;4.27;2.50;;;20.50;54.10;21.40;101783.00;;;;5066523;28;20158;-42
2022/07/10 06:56:15;;;;;;;4.43;2.77;;;20.50;54.10;21.40;101767.00;;;;5066186;28;20193;-42
2022/07/10 06:58:41;;;;;;;4.17;2.50;;;20.60;54.20;21.40;101780.00;;;;5076718;28;20668;-43
2022/07/10 07:01:07;;;;;;;4.37;2.70;;;20.50;54.20;21.40;101767.00;;;;5090718;28;20204;-43
2022/07/10 07:03:33;;;;;;;4.10;2.40;;;20.50;54.10;21.40;101772.00;;;;5091735;28;20216;-42
2022/07/10 07:05:59;;;;;;;4.53;2.60;;;20.50;54.10;21.40;101778.00;;;;5090374;28;20275;-42
2022/07/10 07:08:24;;;;;;;3.83;2.20;;;20.50;54.20;21.40;101773.00;;;;5087311;28;20177;-42
2022/07/10 07:10:50;;;;;;;4.60;2.50;;;20.50;54.30;21.40;101778.00;;;;5085821;28;20184;-43
2022/07/10 07:13:16;;;;;;;4.13;2.67;;;20.50;54.30;21.40;101774.00;;;;5087503;28;20661;-42
2022/07/10 07:15:46;;;;;;;3.83;2.40;;;20.50;54.30;21.40;101767.00;;;;5087545;28;20516;-43
2022/07/10 07:18:15;;;;;;;7.33;2.80;;;20.50;54.20;21.40;101775.00;;;;5086306;28;20557;-43
2022/07/10 07:23:26;;;;;;;4.33;2.37;;;20.50;54.50;21.30;101785.00;;;;5087724;28;20242;-43
2022/07/10 07:25:51;;;;;;;4.63;2.30;;;20.50;54.40;21.30;101789.00;;;;5086954;28;20285;-41
2022/07/10 07:28:19;;;;;;;3.87;2.53;;;20.50;54.30;21.30;101785.00;;;;5085665;28;20210;-42
2022/07/10 07:30:46;;;;;;;4.33;2.30;;;20.50;54.40;21.30;101778.00;;;;5087445;28;20185;-41
2022/07/10 07:33:12;;;;;;;4.80;2.37;;;20.50;54.40;21.30;101782.00;;;;5087376;28;20182;-42
2022/07/10 07:35:38;;;;;;;4.07;2.10;;;20.50;54.40;21.30;101790.00;;;;5086571;28;20547;-42
2022/07/10 07:38:05;;;;;;;4.63;2.20;;;20.50;54.40;21.30;101782.00;;;;5087273;28;20194;-42
2022/07/10 07:40:31;;;;;;;3.53;2.20;;;20.50;54.30;21.30;101789.00;;;;5087467;28;20187;-42
2022/07/10 07:42:57;;;;;;;3.03;2.20;;;20.50;54.20;21.30;101786.00;;;;5011958;28;20185;-43
2022/07/10 07:45:23;;;;;;;4.67;2.50;;;20.50;54.10;21.20;101781.00;;;;5086575;28;20229;-43
2022/07/10 07:47:55;;;;;;;4.90;2.40;;;20.50;54.30;21.30;101790.00;;;;5086577;28;20935;-43
2022/07/10 07:50:34;;;;;;;3.57;2.57;;;20.50;54.10;21.30;101788.00;;;;5086742;28;20177;-43
2022/07/10 07:53:01;;;;;;;4.63;2.47;;;20.50;54.10;21.30;101787.00;;;;5086970;28;20209;-43
2022/07/10 07:55:27;;;;;;;4.63;2.40;;;20.50;54.10;21.30;101783.00;;;;5095965;28;20170;-43
2022/07/10 07:57:54;;;;;;;2.70;2.20;;;20.50;54.10;21.30;101779.00;;;;5086273;28;20209;-43
2022/07/10 08:00:22;;;;;;;5.80;2.20;;;20.40;54.00;21.30;101790.00;;;;5086321;28;20530;-43
2022/07/10 08:02:49;;;;;;;4.90;2.20;;;20.50;54.10;21.40;101786.00;;;;5086307;28;20228;-43
2022/07/10 08:05:15;;;;;;;3.13;2.30;;;20.50;54.10;21.40;101790.00;;;;5086537;28;20196;-43
2022/07/10 08:07:50;;;;;;;4.37;2.40;;;20.50;54.00;21.40;101791.00;;;;5086365;28;20306;-44
2022/07/10 08:10:18;;;;;;;2.90;2.10;;;20.60;54.10;21.40;101791.00;;;;5084457;28;20641;-44
2022/07/10 08:12:45;;;;;;;4.13;2.40;;;20.60;54.00;21.40;101795.00;;;;5086295;28;20184;-44
2022/07/10 08:15:11;;;;;;;3.03;2.17;;;20.60;54.10;21.40;101790.00;;;;5086326;28;20366;-43
2022/07/10 08:17:37;;;;;;;3.27;2.30;;;20.60;54.00;21.40;101791.00;;;;5086171;28;20200;-45
2022/07/10 08:20:05;;;;;;;3.07;2.10;;;20.60;54.00;21.40;101794.00;;;;5086655;28;20248;-43
2022/07/10 08:22:31;;;;;;;4.60;2.20;;;20.60;54.00;21.40;101791.00;;;;5086620;28;20178;-44
2022/07/10 08:24:57;;;;;;;3.63;2.30;;;20.60;54.00;21.40;101779.00;;;;5086185;28;20206;-44
2022/07/10 08:27:23;;;;;;;3.40;2.10;;;20.60;53.90;21.40;101780.00;;;;5086419;28;20193;-43
2022/07/10 08:29:49;;;;;;;4.77;2.30;;;20.60;53.90;21.50;101786.00;;;;5086630;28;20204;-44
2022/07/10 08:32:15;;;;;;;2.20;2.00;;;20.60;53.90;21.40;101796.00;;;;5086146;28;20218;-44
2022/07/10 08:34:40;;;;;;;2.73;2.03;;;20.60;53.80;21.50;101792.00;;;;5086632;28;20455;-44
2022/07/10 08:37:06;;;;;;;2.50;2.10;;;20.70;53.90;21.50;101792.00;;;;5086351;28;20601;-44
2022/07/10 08:39:32;;;;;;;2.33;2.00;;;20.70;53.90;21.50;101792.00;;;;5086375;28;20722;-44
2022/07/10 08:41:59;;;;;;;3.17;2.20;;;20.70;53.80;21.50;101789.00;;;;4983869;28;20166;-48
2022/07/10 08:44:25;;;;;;;3.00;2.30;;;20.70;54.00;21.50;101800.00;;;;5084982;28;20181;-48
2022/07/10 08:46:51;;;;;;;5.90;2.47;;;20.70;54.20;21.50;101794.00;;;;5092686;28;20269;-44
2022/07/10 08:49:17;;;;;;;3.73;2.07;;;20.70;54.00;21.60;101790.00;;;;5097403;28;20218;-43
2022/07/10 08:52:31;;;;;;;4.60;2.20;;;20.80;53.90;21.60;101795.00;;;;5087007;28;20173;-43
2022/07/10 08:54:57;;;;;;;6.40;2.40;;;20.70;54.20;21.60;101789.00;;;;5084275;28;20189;-45
2022/07/10 08:57:23;;;;;;;7.23;2.83;;;20.80;54.00;21.60;101786.00;;;;5086204;28;20338;-45
2022/07/10 08:59:49;;;;;;;8.43;3.77;;;20.80;54.20;21.60;101786.00;;;;5084371;28;20177;-44
2022/07/10 09:02:15;;;;;;;8.60;3.70;;;20.80;54.60;21.60;101792.00;;;;5078420;28;20173;-44
2022/07/10 09:04:41;;;;;;;10.30;3.80;;;20.70;54.20;21.60;101798.00;;;;5108492;28;20303;-44
2022/07/10 09:07:07;;;;;;;11.23;3.93;;;20.80;54.70;21.70;101797.00;;;;5085058;28;20210;-48
2022/07/10 09:09:50;;;;;;;9.40;4.37;;;20.80;54.40;21.70;101791.00;;;;5115975;28;20755;-46
2022/07/10 09:12:16;;;;;;;11.33;4.20;;;20.80;54.40;21.70;101782.00;;;;5072870;28;20169;-44
2022/07/10 09:14:41;;;;;;;11.67;4.60;;;20.80;54.30;21.70;101775.00;;;;5085912;28;20188;-44
2022/07/10 09:17:07;;;;;;;11.20;4.30;;;20.80;54.20;21.70;101777.00;;;;5086057;28;20285;-44
2022/07/10 09:19:33;;;;;;;9.53;4.07;;;20.80;54.30;21.70;101770.00;;;;5085934;28;20252;-43
2022/07/10 09:22:09;;;;;;;12.13;4.07;;;20.80;54.20;21.80;101772.00;;;;5068118;28;20211;-44
2022/07/10 09:24:40;;;;;;;8.97;4.47;;;20.80;54.40;21.80;101771.00;;;;5086272;28;20185;-44
2022/07/10 09:27:06;;;;;;;12.47;4.83;;;20.80;54.30;21.80;101778.00;;;;5085871;28;20199;-44
2022/07/10 09:29:44;;;;;;;7.80;4.23;;;20.90;54.40;21.80;101775.00;;;;5085286;28;20173;-44
2022/07/10 09:32:09;;;;;;;10.33;4.57;;;20.80;54.20;21.80;101766.00;;;;5086224;28;20169;-43
2022/07/10 09:34:43;;;;;;;10.77;4.37;;;20.90;54.20;21.80;101779.00;;;;5089961;28;20192;-43
2022/07/10 09:37:29;;;;;;;10.23;4.80;;;20.80;54.20;21.80;101776.00;;;;5089755;28;20604;-45
2022/07/10 09:40:05;;;;;;;9.57;4.10;;;20.90;54.30;21.80;101772.00;;;;5090043;28;20200;-44
2022/07/10 09:42:36;;;;;;;9.10;4.27;;;20.80;54.30;21.80;101776.00;;;;5089970;28;20153;-44
2022/07/10 09:45:13;;;;;;;9.30;4.27;;;20.90;54.30;21.80;101780.00;;;;5089514;28;20217;-44
2022/07/10 09:47:40;;;;;;;8.63;4.27;;;20.90;54.40;21.80;101775.00;;;;5089442;28;20694;-43
2022/07/10 09:50:27;;;;;;;7.57;3.90;;;20.90;54.40;21.80;101773.00;;;;5089318;28;20278;-44
2022/07/10 09:53:01;;;;;;;10.40;4.33;;;20.80;54.50;21.80;101772.00;;;;5089052;28;20174;-45
2022/07/10 09:55:32;;;;;;;6.23;3.80;;;20.80;54.40;21.80;101770.00;;;;5089384;28;20163;-44
2022/07/10 09:58:02;;;;;;;7.53;3.97;;;20.90;54.40;21.80;101767.00;;;;5091923;28;20278;-44
2022/07/10 10:00:31;;;;;;;8.90;4.00;;;20.90;54.50;21.90;101769.00;;;;5089748;28;20245;-43
2022/07/10 10:03:01;;;;;;;10.83;3.90;;;20.90;54.60;21.90;101766.00;;;;5088884;28;20170;-43
2022/07/10 10:05:43;;;;;;;7.63;4.00;;;20.90;54.60;21.90;101776.00;;;;5089197;28;20183;-43
2022/07/10 10:08:20;;;;;;;6.47;3.77;;;20.90;54.70;21.90;101762.00;;;;5088961;28;20195;-43
2022/07/10 10:10:49;;;;;;;6.30;4.17;;;20.90;54.70;21.90;101770.00;;;;5088586;28;20182;-43
2022/07/10 10:13:23;;;;;;;6.63;3.73;;;20.90;55.50;21.90;101767.00;;;;5088781;28;20673;-43
2022/07/10 10:15:52;;;;;;;6.53;3.40;;;20.90;54.70;21.90;101763.00;;;;5089041;28;20275;-43
2022/07/10 10:18:22;;;;;;;4.57;3.20;;;20.90;54.90;21.90;101761.00;;;;5087570;28;20252;-44
2022/07/10 10:20:49;;;;;;;6.50;3.70;;;20.90;55.00;21.90;101765.00;;;;5088936;28;20172;-43
2022/07/10 10:23:20;;;;;;;5.83;3.30;;;20.90;55.10;21.90;101772.00;;;;5095274;28;20172;-43
2022/07/10 10:25:51;;;;;;;5.37;3.50;;;20.90;55.10;21.90;101764.00;;;;5103774;28;20207;-45
2022/07/10 10:28:17;;;;;;;5.43;3.50;;;20.80;55.00;21.90;101766.00;;;;5088855;28;20219;-44
2022/07/10 10:30:45;;;;;;;4.90;3.67;;;20.80;54.90;22.00;101772.00;;;;5070877;28;20505;-43
2022/07/10 10:33:32;;;;;;;5.67;3.57;;;20.90;54.80;22.00;101767.00;;;;5087469;28;20268;-44
2022/07/10 10:36:05;;;;;;;5.60;3.90;;;20.90;54.90;22.00;101774.00;;;;5088585;28;20539;-44
2022/07/10 10:38:58;;;;;;;5.60;3.40;;;20.90;54.90;22.00;101761.00;;;;5087950;28;20664;-44
2022/07/10 10:41:25;;;;;;;5.57;3.40;;;20.90;55.00;21.90;101755.00;;;;5088987;28;20157;-44
2022/07/10 10:44:16;;;;;;;6.40;3.80;;;20.90;55.00;21.90;101753.00;;;;5089068;28;20176;-44
2022/07/10 10:46:53;;;;;;;4.73;3.40;;;20.90;55.30;22.00;101751.00;;;;5089743;28;20281;-44
2022/07/10 10:49:20;;;;;;;3.87;3.27;;;20.90;55.30;22.00;101753.00;;;;5100277;28;20238;-44
2022/07/10 10:52:09;;;;;;;5.33;3.53;;;20.90;55.30;22.00;101743.00;;;;5089864;28;20186;-43
2022/07/10 10:54:56;;;;;;;5.13;3.40;;;20.90;55.30;22.00;101735.00;;;;5088406;28;20535;-43